createdAt,value
2022-08-05T00:00:19.550Z,67.57
2022-08-05T00:02:51.809Z,67.79
2022-08-05T00:06:02.844Z,67.27
2022-08-05T00:08:34.129Z,67.80
2022-08-05T00:10:56.609Z,67.42
2022-08-05T00:13:38.476Z,67.46
2022-08-05T00:16:09.207Z,67.54
2022-08-05T00:18:38.311Z,67.14
2022-08-05T00:21:06.516Z,68.25
2022-08-05T00:23:46.894Z,67.93
2022-08-05T00:26:20.896Z,67.50
2022-08-05T00:28:49.348Z,67.83
2022-08-05T00:31:16.032Z,67.73
2022-08-05T00:34:54.150Z,67.72
2022-08-05T00:37:11.496Z,68.01
2022-08-05T00:39:15.420Z,68.30
2022-08-05T00:41:46.823Z,67.70
2022-08-05T00:44:18.979Z,67.52
2022-08-05T00:46:47.390Z,68.00
2022-08-05T00:49:20.917Z,68.15
2022-08-05T00:51:50.224Z,68.42
2022-08-05T00:54:18.676Z,69.02
2022-08-05T00:56:51.494Z,68.86
2022-08-05T00:59:18.558Z,68.87
2022-08-05T01:01:48.651Z,68.78
2022-08-05T01:04:16.046Z,68.99
2022-08-05T01:06:51.689Z,69.35
2022-08-05T01:09:20.026Z,68.81
2022-08-05T01:11:50.741Z,69.30
2022-08-05T01:14:27.940Z,68.79
2022-08-05T01:17:21.515Z,68.98
2022-08-05T01:20:00.913Z,68.28
2022-08-05T01:22:43.042Z,68.49
2022-08-05T01:25:22.536Z,68.53
2022-08-05T01:28:19.913Z,68.87
2022-08-05T01:30:59.488Z,69.11
2022-08-05T01:33:35.987Z,68.87
2022-08-05T01:36:13.170Z,68.71
2022-08-05T01:38:44.734Z,69.03
2022-08-05T01:41:14.766Z,69.06
2022-08-05T01:43:42.242Z,69.38
2022-08-05T01:46:41.212Z,69.19
2022-08-05T01:48:58.410Z,69.25
2022-08-05T01:51:29.352Z,68.93
2022-08-05T01:53:59.113Z,69.03
2022-08-05T01:58:09.564Z,69.45
2022-08-05T01:59:22.430Z,69.53
2022-08-05T02:01:54.866Z,69.47
2022-08-05T02:04:23.727Z,69.59
2022-08-05T02:06:50.781Z,69.40
2022-08-05T02:09:17.284Z,69.42
2022-08-05T02:12:35.241Z,69.59
2022-08-05T02:15:14.780Z,70.11
2022-08-05T02:18:31.053Z,70.98
2022-08-05T02:20:47.952Z,70.88
2022-08-05T02:23:20.124Z,70.83
2022-08-05T02:25:50.396Z,70.74
2022-08-05T02:28:28.941Z,70.89
2022-08-05T02:31:05.834Z,70.81
2022-08-05T02:33:42.035Z,71.01
2022-08-05T02:36:13.673Z,71.29
2022-08-05T02:38:52.815Z,70.95
2022-08-05T02:41:22.910Z,70.95
2022-08-05T02:44:06.524Z,71.14
2022-08-05T02:46:53.206Z,71.02
2022-08-05T02:49:40.409Z,71.05
2022-08-05T02:52:29.904Z,71.00
2022-08-05T02:54:58.682Z,71.36
2022-08-05T02:58:11.378Z,71.27
2022-08-05T03:00:16.861Z,71.74
2022-08-05T03:02:46.557Z,71.47
2022-08-05T03:05:15.068Z,71.22
2022-08-05T03:08:06.609Z,71.60
2022-08-05T03:10:29.654Z,71.64
2022-08-05T03:15:24.872Z,71.51
2022-08-05T03:17:55.844Z,71.49
2022-08-05T03:20:24.283Z,71.20
2022-08-05T03:22:52.019Z,71.55
2022-08-05T03:25:33.268Z,71.62
2022-08-05T03:28:08.839Z,71.85
2022-08-05T03:30:41.093Z,71.94
2022-08-05T03:33:09.331Z,72.06
2022-08-05T03:35:40.707Z,72.21
2022-08-05T03:38:10.872Z,72.21
2022-08-05T03:40:40.967Z,72.39
2022-08-05T03:43:58.926Z,72.54
2022-08-05T03:45:57.695Z,72.25
2022-08-05T03:48:27.220Z,72.52
2022-08-05T03:52:37.397Z,72.27
2022-08-05T03:55:51.172Z,72.39
2022-08-05T03:56:50.235Z,72.74
2022-08-05T03:59:26.063Z,72.84
2022-08-05T04:01:59.084Z,72.74
2022-08-05T04:04:27.905Z,73.03
2022-08-05T04:06:55.489Z,73.02
2022-08-05T04:09:26.127Z,72.84
2022-08-05T04:11:53.923Z,72.99
2022-08-05T04:14:30.663Z,72.81
2022-08-05T04:16:59.894Z,72.47
2022-08-05T04:19:28.653Z,72.68
2022-08-05T04:22:10.358Z,72.48
2022-08-05T04:24:52.438Z,72.50
2022-08-05T04:27:19.797Z,72.19
2022-08-05T04:30:07.831Z,72.72
2022-08-05T04:32:35.590Z,72.60
2022-08-05T04:35:03.529Z,72.55
2022-08-05T04:38:00.608Z,72.44
2022-08-05T04:40:19.401Z,72.77
2022-08-05T04:42:46.373Z,72.33
2022-08-05T04:45:23.030Z,72.57
2022-08-05T04:48:07.210Z,72.05
2022-08-05T04:51:02.614Z,71.88
2022-08-05T04:53:35.535Z,71.58
2022-08-05T04:56:33.099Z,71.62
2022-08-05T04:58:49.629Z,71.73
2022-08-05T05:02:06.233Z,72.16
2022-08-05T05:04:03.138Z,71.87
2022-08-05T05:06:40.020Z,72.31
2022-08-05T05:09:14.022Z,72.20
2022-08-05T05:11:53.034Z,72.76
2022-08-05T05:14:31.645Z,72.35
2022-08-05T05:17:01.451Z,72.79
2022-08-05T05:19:36.806Z,72.66
2022-08-05T05:22:23.591Z,72.10
2022-08-05T05:24:57.794Z,72.40
2022-08-05T05:27:44.793Z,72.26
2022-08-05T05:30:28.899Z,72.24
2022-08-05T05:33:00.465Z,72.63
2022-08-05T05:35:34.238Z,71.92
2022-08-05T05:38:05.474Z,70.34
2022-08-05T05:40:32.702Z,69.50
2022-08-05T05:43:02.152Z,68.49
2022-08-05T05:45:29.197Z,68.71
2022-08-05T05:48:06.246Z,69.17
2022-08-05T05:50:44.025Z,68.93
2022-08-05T05:53:21.131Z,68.10
2022-08-05T05:55:52.264Z,67.46
2022-08-05T05:58:32.013Z,67.14
2022-08-05T06:01:13.093Z,67.41
2022-08-05T06:04:00.469Z,67.27
2022-08-05T06:06:30.744Z,67.07
2022-08-05T06:08:58.142Z,67.29
2022-08-05T06:11:24.655Z,67.91
2022-08-05T06:13:54.089Z,67.91
2022-08-05T06:16:29.448Z,67.91
2022-08-05T06:19:01.223Z,67.22
2022-08-05T06:21:35.875Z,66.25
2022-08-05T06:24:11.440Z,65.33
2022-08-05T06:26:52.334Z,64.89
2022-08-05T06:29:25.481Z,64.73
2022-08-05T06:32:21.220Z,65.25
2022-08-05T06:34:56.673Z,65.96
2022-08-05T06:37:39.431Z,66.09
2022-08-05T06:40:18.286Z,65.26
2022-08-05T06:42:48.332Z,65.69
2022-08-05T06:45:21.051Z,65.38
2022-08-05T06:48:35.995Z,65.38
2022-08-05T06:50:35.235Z,64.64
2022-08-05T06:53:11.461Z,63.90
2022-08-05T06:55:46.369Z,63.55
2022-08-05T06:58:20.136Z,63.27
2022-08-05T07:01:00.577Z,62.99
2022-08-05T07:03:32.884Z,62.21
2022-08-05T07:06:06.266Z,61.63
2022-08-05T07:08:47.609Z,59.25
2022-08-05T07:11:22.160Z,58.75
2022-08-05T07:14:08.300Z,58.78
2022-08-05T07:18:02.125Z,58.40
2022-08-05T07:22:27.772Z,59.17
2022-08-05T07:24:56.925Z,58.38
2022-08-05T07:27:25.197Z,57.74
2022-08-05T07:30:24.543Z,57.94
2022-08-05T07:32:43.221Z,57.81
2022-08-05T07:36:02.995Z,58.29
2022-08-05T07:37:58.487Z,58.19
2022-08-05T07:40:32.888Z,57.89
2022-08-05T07:42:59.881Z,57.67
2022-08-05T07:45:57.586Z,56.65
2022-08-05T07:49:01.396Z,55.50
2022-08-05T07:51:22.983Z,54.84
2022-08-05T07:53:51.276Z,54.12
2022-08-05T07:56:39.017Z,54.57
2022-08-05T07:59:05.107Z,55.00
2022-08-05T08:01:35.170Z,55.27
2022-08-05T08:04:07.953Z,55.18
2022-08-05T08:06:34.491Z,54.15
2022-08-05T08:09:00.957Z,53.41
2022-08-05T08:11:49.505Z,52.07
2022-08-05T08:14:17.510Z,52.40
2022-08-05T08:16:50.695Z,50.52
2022-08-05T08:20:00.468Z,49.79
2022-08-05T08:22:05.398Z,48.71
2022-08-05T08:24:41.482Z,48.07
2022-08-05T08:27:18.627Z,46.75
2022-08-05T08:30:06.037Z,45.71
2022-08-05T08:32:34.197Z,43.62
2022-08-05T08:35:07.531Z,44.49
2022-08-05T08:37:40.383Z,45.41
2022-08-05T08:40:12.626Z,45.28
2022-08-05T08:42:46.647Z,46.01
2022-08-05T08:45:26.662Z,45.70
2022-08-05T08:48:10.711Z,43.46
2022-08-05T08:51:22.997Z,42.10
2022-08-05T08:53:38.130Z,40.29
2022-08-05T08:56:11.009Z,40.99
2022-08-05T08:58:44.503Z,40.38
2022-08-05T09:01:16.217Z,40.80
2022-08-05T09:03:48.204Z,39.88
2022-08-05T09:06:21.226Z,38.23
2022-08-05T09:08:51.403Z,37.37
2022-08-05T09:11:17.959Z,36.80
2022-08-05T09:14:54.407Z,37.32
2022-08-05T09:16:51.729Z,37.73
2022-08-05T09:19:19.005Z,37.88
2022-08-05T09:22:23.368Z,37.18
2022-08-05T09:24:42.524Z,36.89
2022-08-05T09:27:09.610Z,35.05
2022-08-05T09:29:47.640Z,33.57
2022-08-05T09:32:46.044Z,34.17
2022-08-05T09:35:12.758Z,33.29
2022-08-05T09:38:12.829Z,34.61
2022-08-05T09:40:44.562Z,35.08
2022-08-05T09:43:40.503Z,31.27
2022-08-05T09:46:27.521Z,31.73
2022-08-05T09:49:08.272Z,32.77
2022-08-05T09:51:42.248Z,32.43
2022-08-05T09:54:09.285Z,30.84
2022-08-05T09:56:38.028Z,31.36
2022-08-05T09:59:16.850Z,31.54
2022-08-05T10:01:46.501Z,31.59
2022-08-05T10:04:16.205Z,31.47
2022-08-05T10:06:59.252Z,29.06
2022-08-05T10:09:28.180Z,28.70
2022-08-05T10:12:30.374Z,28.63
2022-08-05T10:15:13.918Z,26.75
2022-08-05T10:17:54.508Z,27.32
2022-08-05T10:20:25.349Z,26.75
2022-08-05T10:22:52.493Z,26.38
2022-08-05T10:25:19.671Z,25.97
2022-08-05T10:28:09.744Z,26.83
2022-08-05T10:32:47.699Z,26.22
2022-08-05T10:33:25.632Z,25.42
2022-08-05T10:35:59.775Z,24.87
2022-08-05T10:38:28.801Z,25.33
2022-08-05T10:41:13.645Z,23.99
2022-08-05T10:43:54.390Z,23.83
2022-08-05T10:46:24.122Z,23.69
2022-08-05T10:49:05.053Z,23.50
2022-08-05T10:52:03.336Z,22.47
2022-08-05T10:54:56.745Z,22.57
2022-08-05T10:57:32.410Z,23.24
2022-08-05T11:00:09.943Z,21.62
2022-08-05T11:03:25.002Z,22.40
2022-08-05T11:06:22.317Z,20.79
2022-08-05T11:09:32.437Z,21.41
2022-08-05T11:12:26.634Z,21.93
2022-08-05T11:15:20.490Z,22.30
2022-08-05T11:18:07.342Z,21.84
2022-08-05T11:20:44.119Z,22.48
2022-08-05T11:24:04.787Z,22.30
2022-08-05T11:26:32.829Z,22.56
2022-08-05T11:29:11.879Z,22.39
2022-08-05T11:31:57.909Z,22.29
2022-08-05T11:34:51.998Z,23.47
2022-08-05T11:38:37.340Z,24.34
2022-08-05T11:41:03.482Z,26.47
2022-08-05T11:44:06.252Z,27.61
2022-08-05T11:46:34.903Z,26.90
2022-08-05T11:49:02.628Z,27.42
2022-08-05T11:51:44.320Z,27.57
2022-08-05T11:54:33.094Z,29.00
2022-08-05T11:57:02.174Z,29.35
2022-08-05T11:59:49.638Z,30.07
2022-08-05T12:02:24.049Z,30.68
2022-08-05T12:05:18.271Z,30.80
2022-08-05T12:08:10.191Z,31.49
2022-08-05T12:10:43.221Z,31.97
2022-08-05T12:13:27.747Z,31.60
2022-08-05T12:16:15.736Z,31.82
2022-08-05T12:18:49.426Z,32.19
2022-08-05T12:21:26.947Z,33.17
2022-08-05T12:24:00.127Z,33.49
2022-08-05T12:26:45.096Z,33.83
2022-08-05T12:29:23.480Z,34.03
2022-08-05T12:31:53.097Z,33.49
2022-08-05T12:34:23.916Z,34.34
2022-08-05T12:36:53.519Z,34.41
2022-08-05T12:39:23.607Z,34.89
2022-08-05T12:41:59.641Z,34.20
2022-08-05T12:44:33.439Z,34.09
2022-08-05T12:47:02.496Z,34.57
2022-08-05T12:50:03.201Z,35.52
2022-08-05T12:52:39.679Z,33.97
2022-08-05T12:55:25.529Z,34.20
2022-08-05T12:58:50.507Z,34.28
2022-08-05T13:02:02.841Z,34.80
2022-08-05T13:03:32.185Z,34.87
2022-08-05T13:06:00.824Z,32.99
2022-08-05T13:08:30.048Z,33.21
2022-08-05T13:11:04.107Z,32.46
2022-08-05T13:14:05.886Z,32.87
2022-08-05T13:16:19.526Z,32.67
2022-08-05T13:18:58.373Z,31.75
2022-08-05T13:21:27.900Z,32.87
2022-08-05T13:23:54.582Z,32.99
2022-08-05T13:26:29.866Z,33.51
2022-08-05T13:28:57.152Z,33.05
2022-08-05T13:31:33.772Z,33.43
2022-08-05T13:34:24.949Z,33.63
2022-08-05T13:36:53.521Z,32.99
2022-08-05T13:40:14.334Z,32.78
2022-08-05T13:42:07.197Z,34.34
2022-08-05T13:44:35.786Z,34.83
2022-08-05T13:47:08.616Z,35.20
2022-08-05T13:49:35.701Z,35.74
2022-08-05T13:52:19.428Z,35.67
2022-08-05T13:54:56.517Z,36.48
2022-08-05T13:57:26.078Z,36.65
2022-08-05T14:00:13.121Z,35.15
2022-08-05T14:02:39.737Z,34.11
2022-08-05T14:05:15.316Z,34.79
2022-08-05T14:08:00.561Z,35.14
2022-08-05T14:10:32.376Z,35.09
2022-08-05T14:12:59.574Z,34.88
2022-08-05T14:16:09.044Z,34.86
2022-08-05T14:18:14.821Z,35.26
2022-08-05T14:20:48.004Z,35.46
2022-08-05T14:23:25.102Z,35.38
2022-08-05T14:25:58.426Z,34.51
2022-08-05T14:28:27.872Z,34.62
2022-08-05T14:30:55.574Z,35.66
2022-08-05T14:33:22.659Z,36.69
2022-08-05T14:35:51.545Z,36.84
2022-08-05T14:38:32.267Z,36.66
2022-08-05T14:41:06.466Z,36.45
2022-08-05T14:43:58.986Z,36.52
2022-08-05T14:46:22.385Z,36.17
2022-08-05T14:48:54.494Z,36.45
2022-08-05T14:51:21.159Z,36.68
2022-08-05T14:54:26.306Z,36.53
2022-08-05T14:56:36.217Z,37.62
2022-08-05T14:59:04.858Z,37.99
2022-08-05T15:01:47.205Z,39.36
2022-08-05T15:04:17.674Z,39.15
2022-08-05T15:06:49.414Z,39.19
2022-08-05T15:09:17.187Z,39.08
2022-08-05T15:12:04.349Z,38.45
2022-08-05T15:14:36.752Z,38.36
2022-08-05T15:17:46.021Z,38.89
2022-08-05T15:20:04.452Z,38.62
2022-08-05T15:22:30.945Z,38.08
2022-08-05T15:25:00.495Z,37.81
2022-08-05T15:27:38.576Z,37.96
2022-08-05T15:30:10.934Z,37.21
2022-08-05T15:32:40.936Z,38.22
2022-08-05T15:35:10.796Z,37.92
2022-08-05T15:38:32.842Z,37.03
2022-08-05T15:40:59.881Z,38.16
2022-08-05T15:43:20.039Z,38.24
2022-08-05T15:45:48.037Z,38.11
2022-08-05T15:48:28.222Z,37.84
2022-08-05T15:50:54.667Z,37.58
2022-08-05T15:53:23.101Z,37.74
2022-08-05T15:56:01.985Z,37.65
2022-08-05T15:58:35.743Z,38.03
2022-08-05T16:01:16.299Z,38.30
2022-08-05T16:03:44.916Z,39.13
2022-08-05T16:06:15.264Z,39.11
2022-08-05T16:08:47.229Z,40.19
2022-08-05T16:11:14.258Z,40.33
2022-08-05T16:13:41.106Z,40.56
2022-08-05T16:16:07.704Z,40.93
2022-08-05T16:23:53.521Z,41.89
2022-08-05T16:26:26.365Z,42.09
2022-08-05T16:28:54.387Z,41.87
2022-08-05T16:31:21.188Z,42.00
2022-08-05T16:33:47.626Z,42.14
2022-08-05T16:36:14.162Z,41.88
2022-08-05T16:38:55.210Z,41.54
2022-08-05T16:42:14.626Z,41.61
2022-08-05T16:44:10.233Z,41.10
2022-08-05T16:46:41.110Z,41.67
2022-08-05T16:49:09.987Z,40.86
2022-08-05T16:51:42.921Z,40.79
2022-08-05T16:54:28.608Z,40.79
2022-08-05T16:56:58.484Z,41.15
2022-08-05T16:59:25.078Z,40.60
2022-08-05T17:01:57.288Z,40.29
2022-08-05T17:04:26.381Z,41.02
2022-08-05T17:06:55.231Z,41.25
2022-08-05T17:09:26.922Z,41.17
2022-08-05T17:11:59.830Z,41.25
2022-08-05T17:14:37.602Z,42.10
2022-08-05T17:17:06.657Z,42.59
2022-08-05T17:19:43.780Z,43.21
2022-08-05T17:22:24.390Z,43.26
2022-08-05T17:24:57.822Z,43.48
2022-08-05T17:27:33.664Z,43.68
2022-08-05T17:30:02.647Z,44.08
2022-08-05T17:32:29.870Z,44.51
2022-08-05T17:34:58.131Z,45.17
2022-08-05T17:37:40.744Z,45.58
2022-08-05T17:40:12.407Z,45.54
2022-08-05T17:42:51.233Z,45.69
2022-08-05T17:45:22.151Z,45.39
2022-08-05T17:47:55.452Z,45.61
2022-08-05T17:50:29.504Z,45.37
2022-08-05T17:53:01.264Z,45.91
2022-08-05T17:55:38.022Z,46.24
2022-08-05T17:58:12.628Z,46.61
2022-08-05T18:00:47.580Z,46.11
2022-08-05T18:03:58.838Z,45.83
2022-08-05T18:06:11.119Z,46.66
2022-08-05T18:08:38.994Z,46.26
2022-08-05T18:11:11.837Z,45.93
2022-08-05T18:13:51.599Z,45.40
2022-08-05T18:16:20.372Z,45.52
2022-08-05T18:18:48.018Z,45.56
2022-08-05T18:21:21.122Z,45.34
2022-08-05T18:23:49.987Z,45.50
2022-08-05T18:26:21.061Z,45.56
2022-08-05T18:28:54.433Z,45.60
2022-08-05T18:31:21.496Z,46.09
2022-08-05T18:33:49.731Z,45.80
2022-08-05T18:36:19.182Z,46.38
2022-08-05T18:38:46.452Z,46.51
2022-08-05T18:41:56.682Z,46.98
2022-08-05T18:44:05.769Z,47.05
2022-08-05T18:46:34.316Z,47.63
2022-08-05T18:49:20.892Z,47.73
2022-08-05T18:52:10.851Z,47.57
2022-08-05T18:54:41.323Z,47.29
2022-08-05T18:57:15.304Z,47.78
2022-08-05T19:00:01.374Z,47.80
2022-08-05T19:02:29.010Z,48.00
2022-08-05T19:05:02.114Z,47.57
2022-08-05T19:07:47.629Z,47.89
2022-08-05T19:10:15.051Z,48.74
2022-08-05T19:12:46.093Z,49.12
2022-08-05T19:15:57.647Z,48.88
2022-08-05T19:18:09.814Z,49.25
2022-08-05T19:20:41.608Z,49.74
2022-08-05T19:24:04.170Z,49.67
2022-08-05T19:26:03.321Z,50.07
2022-08-05T19:28:33.619Z,50.07
2022-08-05T19:31:00.861Z,50.43
2022-08-05T19:33:35.937Z,50.12
2022-08-05T19:36:09.703Z,50.85
2022-08-05T19:38:43.775Z,50.62
2022-08-05T19:41:10.444Z,51.03
2022-08-05T19:44:06.580Z,50.95
2022-08-05T19:46:30.213Z,51.24
2022-08-05T19:49:03.313Z,51.22
2022-08-05T19:51:59.778Z,52.48
2022-08-05T19:54:26.844Z,51.33
2022-08-05T19:56:59.644Z,51.94
2022-08-05T19:59:56.102Z,51.57
2022-08-05T20:02:17.581Z,51.95
2022-08-05T20:04:46.162Z,52.17
2022-08-05T20:07:47.311Z,52.25
2022-08-05T20:10:11.804Z,52.05
2022-08-05T20:12:46.328Z,52.22
2022-08-05T20:15:15.850Z,52.10
2022-08-05T20:18:04.142Z,52.04
2022-08-05T20:20:37.779Z,52.43
2022-08-05T20:23:05.409Z,52.54
2022-08-05T20:25:33.859Z,52.72
2022-08-05T20:28:13.674Z,52.66
2022-08-05T20:30:40.926Z,52.87
2022-08-05T20:33:08.687Z,53.21
2022-08-05T20:35:40.514Z,52.97
2022-08-05T20:38:11.909Z,53.16
2022-08-05T20:40:50.368Z,53.76
2022-08-05T20:43:17.411Z,53.73
2022-08-05T20:46:00.481Z,54.13
2022-08-05T20:48:27.877Z,54.11
2022-08-05T20:50:54.447Z,54.39
2022-08-05T20:53:37.057Z,54.93
2022-08-05T20:56:09.515Z,54.96
2022-08-05T20:58:36.956Z,55.25
2022-08-05T21:01:04.522Z,55.35
2022-08-05T21:03:34.391Z,55.43
2022-08-05T21:06:02.040Z,55.89
2022-08-05T21:08:41.576Z,56.00
2022-08-05T21:11:12.976Z,56.18
2022-08-05T21:13:59.163Z,56.21
2022-08-05T21:16:30.184Z,56.04
2022-08-05T21:19:01.601Z,56.68
2022-08-05T21:21:43.860Z,56.73
2022-08-05T21:24:17.177Z,56.61
2022-08-05T21:26:53.713Z,56.87
2022-08-05T21:29:31.564Z,56.87
2022-08-05T21:31:59.483Z,56.92
2022-08-05T21:34:25.929Z,56.92
2022-08-05T21:36:54.775Z,57.14
2022-08-05T21:39:26.742Z,56.97
2022-08-05T21:42:00.913Z,57.25
2022-08-05T21:44:28.436Z,57.31
2022-08-05T21:46:55.651Z,57.44
2022-08-05T21:49:48.544Z,57.51
2022-08-05T21:52:22.710Z,57.60
2022-08-05T21:54:55.342Z,57.72
2022-08-05T21:57:31.319Z,58.08
2022-08-05T22:00:10.956Z,58.26
2022-08-05T22:02:38.133Z,58.17
2022-08-05T22:05:05.268Z,58.46
2022-08-05T22:07:39.801Z,58.49
2022-08-05T22:10:27.105Z,58.75
2022-08-05T22:12:57.367Z,59.12
2022-08-05T22:16:04.680Z,58.63
2022-08-05T22:18:11.167Z,59.32
2022-08-05T22:20:39.137Z,59.64
2022-08-05T22:24:01.882Z,59.73
2022-08-05T22:26:31.612Z,59.45
2022-08-05T22:29:00.125Z,59.52
2022-08-05T22:31:30.271Z,59.43
2022-08-05T22:34:01.391Z,59.64
2022-08-05T22:36:29.273Z,59.43
2022-08-05T22:38:56.232Z,59.70
2022-08-05T22:41:26.504Z,59.92
2022-08-05T22:44:11.829Z,60.15
2022-08-05T22:46:40.878Z,60.17
2022-08-05T22:49:23.225Z,60.50
2022-08-05T22:52:04.580Z,60.64
2022-08-05T22:54:38.785Z,60.58
2022-08-05T22:57:06.436Z,60.67
2022-08-05T22:59:46.405Z,61.05
2022-08-05T23:02:18.036Z,60.91
2022-08-05T23:04:51.405Z,60.91
2022-08-05T23:07:22.132Z,61.37
2022-08-05T23:09:58.231Z,61.52
2022-08-05T23:12:32.508Z,61.93
2022-08-05T23:15:03.558Z,61.71
2022-08-05T23:17:35.086Z,62.10
2022-08-05T23:20:18.978Z,61.92
2022-08-05T23:22:49.971Z,62.27
2022-08-05T23:25:51.047Z,62.22
2022-08-05T23:28:08.866Z,62.31
2022-08-05T23:30:39.695Z,62.57
2022-08-05T23:33:15.949Z,62.55
2022-08-05T23:35:43.198Z,62.93
2022-08-05T23:38:11.996Z,63.04
2022-08-05T23:40:38.733Z,63.12
2022-08-05T23:43:11.495Z,63.17
2022-08-05T23:45:52.351Z,63.51
2022-08-05T23:48:19.715Z,63.34
2022-08-05T23:50:46.280Z,63.61
2022-08-05T23:53:22.458Z,63.88
2022-08-05T23:55:49.556Z,63.68
2022-08-05T23:58:31.740Z,63.97
